CheckWX is a tool to help pilots better visualize weather data.  It is not intended as a substitute for an official pre-flight weather briefing.

01:58:06 UTC

HEAR TAF
El Arish International Airport
El Arish, Egypt
TAF HEAR 042300Z 0500/0606 VRB03KT CAVOK BECMG 0506/0508 33008KT 9999 SCT025 BECMG 0516/0508 VRB03KT

Jul-5@
00:00 UTC

Jul-5 @ 00:00 UTC

Jul-5@
06:00 UTC

Jul-5 @ 06:00 UTC

TAF HEAR 042300Z 0500/0606 VRB03KT CAVOK

Expired

Wind
  • Variable at 3 KTS
Conditions
No significant weather
Cloud Levels
  • No significant clouds

Jul-5@
06:00 UTC

Jul-5 @ 06:00 UTC

Jul-5@
16:00 UTC

Jul-5 @ 16:00 UTC

BECMG 0506/0508 33008KT 9999 SCT025

Expired

Wind
  • 330° at 8 KTS
Conditions
No significant weather
Cloud Levels
  • Scattered at 2,500' AGL

Jul-5@
16:00 UTC

Jul-5 @ 16:00 UTC

Jul-6@
06:00 UTC

Jul-6 @ 06:00 UTC

BECMG 0516/0508 VRB03KT

Becoming

Becoming Conditions expected by Sun, Jul 5, 2020 @ 08:00 UTC

Wind
  • Variable at 3 KTS
Conditions
No significant weather
Cloud Levels
  • Scattered at 2,500' AGL